Time;durP1;ratioP1;P1;durP2;ratioP2;P2;SDS_P1;SDS_P2;PMS_P1;PMS_P2;Temp;Humidity;BMP_temperature;BMP_pressure;BME280_temperature;BME280_humidity;BME280_pressure;Samples;Min_cycle;Max_cycle;Signal;HPM_P1;HPM_P2
2022/01/08 00:01:56;;;;;;;20.35;9.85;;;1.50;58.10;;;;;;5083088;28;20366;-71
2022/01/08 00:04:22;;;;;;;18.13;9.60;;;1.50;58.20;;;;;;5070487;28;20457;-70
2022/01/08 00:06:48;;;;;;;18.27;10.40;;;1.40;58.40;;;;;;5069319;28;20111;-71
2022/01/08 00:09:13;;;;;;;18.85;9.48;;;1.40;58.40;;;;;;5071390;28;20047;-71
2022/01/08 00:11:42;;;;;;;19.40;9.52;;;1.40;58.60;;;;;;5071616;28;20456;-70
2022/01/08 00:14:10;;;;;;;23.35;9.80;;;1.40;58.70;;;;;;5052321;28;20055;-71
2022/01/08 00:16:37;;;;;;;20.58;10.15;;;1.40;58.60;;;;;;5076989;28;20024;-73
2022/01/08 00:19:07;;;;;;;18.27;9.45;;;1.40;58.50;;;;;;5071417;28;20032;-69
2022/01/08 00:21:34;;;;;;;17.50;9.43;;;1.40;58.50;;;;;;5053151;28;20074;-72
2022/01/08 00:24:00;;;;;;;22.38;10.18;;;1.40;58.60;;;;;;5069797;28;20086;-72
2022/01/08 00:26:27;;;;;;;21.33;11.05;;;1.40;58.80;;;;;;5071208;28;20032;-71
2022/01/08 00:28:52;;;;;;;18.02;9.73;;;1.40;59.10;;;;;;5071772;28;20079;-69
2022/01/08 00:31:18;;;;;;;19.15;9.98;;;1.40;59.10;;;;;;5071901;28;20028;-69
2022/01/08 00:33:44;;;;;;;16.73;9.50;;;1.50;59.10;;;;;;5072199;28;20021;-68
2022/01/08 00:36:11;;;;;;;19.58;10.48;;;1.60;59.00;;;;;;5072465;28;20016;-68
2022/01/08 00:38:36;;;;;;;18.75;10.05;;;1.70;59.00;;;;;;5072575;28;20020;-68
2022/01/08 00:41:03;;;;;;;21.20;9.88;;;1.70;58.60;;;;;;5071856;28;20107;-69
2022/01/08 00:43:29;;;;;;;16.55;10.30;;;1.80;58.70;;;;;;5064119;28;20021;-69
2022/01/08 00:45:55;;;;;;;20.73;10.02;;;1.90;58.60;;;;;;5054851;28;20028;-69
2022/01/08 00:48:21;;;;;;;17.50;9.77;;;1.90;58.30;;;;;;5072223;28;20044;-69
2022/01/08 00:50:47;;;;;;;21.25;9.93;;;1.90;58.40;;;;;;5061026;28;20030;-68
2022/01/08 00:53:13;;;;;;;18.83;10.00;;;2.00;58.30;;;;;;5071750;28;20107;-69
2022/01/08 00:55:38;;;;;;;18.02;9.93;;;2.10;58.00;;;;;;5071788;28;20523;-70
2022/01/08 00:58:05;;;;;;;19.65;9.82;;;2.10;57.80;;;;;;5071684;28;20097;-71
2022/01/08 01:00:31;;;;;;;16.55;9.30;;;2.20;57.80;;;;;;5072261;28;20028;-71
2022/01/08 01:02:56;;;;;;;17.33;9.75;;;2.20;57.40;;;;;;5103937;28;20032;-70
2022/01/08 01:05:22;;;;;;;17.92;9.38;;;2.20;57.20;;;;;;5070743;28;20029;-70
2022/01/08 01:07:48;;;;;;;20.85;9.10;;;2.20;57.30;;;;;;5071639;28;20048;-71
2022/01/08 01:10:17;;;;;;;18.50;9.38;;;2.30;56.90;;;;;;5071906;28;20016;-70
2022/01/08 01:12:43;;;;;;;18.15;9.27;;;2.30;56.90;;;;;;5069401;28;20052;-68
2022/01/08 01:15:12;;;;;;;18.38;9.93;;;2.40;56.80;;;;;;5071677;28;20052;-69
2022/01/08 01:17:39;;;;;;;21.33;9.75;;;2.30;56.00;;;;;;5071825;28;20025;-69
2022/01/08 01:20:06;;;;;;;17.25;9.88;;;2.40;56.40;;;;;;5069428;28;20431;-69
2022/01/08 01:22:43;;;;;;;20.27;9.70;;;2.40;56.50;;;;;;5067003;28;20033;-70
2022/01/08 01:25:17;;;;;;;18.40;10.60;;;2.50;56.10;;;;;;5068446;28;20559;-71
2022/01/08 01:30:18;;;;;;;17.67;9.25;;;2.50;56.10;;;;;;5069493;28;20032;-71
2022/01/08 01:49:10;;;;;;;16.90;8.40;;;2.40;55.00;;;;;;5068163;28;20046;-71
2022/01/08 01:51:36;;;;;;;16.52;8.73;;;2.30;55.00;;;;;;5068009;28;20033;-72
2022/01/08 01:54:03;;;;;;;17.20;8.60;;;2.30;55.30;;;;;;5068574;28;20039;-72
2022/01/08 01:56:30;;;;;;;19.02;9.25;;;2.30;55.30;;;;;;5068542;28;20040;-71
2022/01/08 01:58:56;;;;;;;18.15;8.60;;;2.30;55.00;;;;;;5068172;28;20092;-72
2022/01/08 02:01:21;;;;;;;19.77;8.35;;;2.20;55.30;;;;;;5083431;28;20108;-70
2022/01/08 02:03:49;;;;;;;18.40;9.13;;;2.20;55.30;;;;;;5068943;28;20025;-69
2022/01/08 02:06:16;;;;;;;17.13;8.82;;;2.20;55.20;;;;;;5069159;28;20029;-70
2022/01/08 02:08:44;;;;;;;14.93;8.85;;;2.20;55.20;;;;;;5068138;28;20532;-71
2022/01/08 02:11:11;;;;;;;18.05;9.25;;;2.10;55.40;;;;;;5067809;28;20091;-71
2022/01/08 02:13:38;;;;;;;15.82;8.43;;;2.00;55.60;;;;;;5068524;28;20040;-72
2022/01/08 02:16:06;;;;;;;16.85;9.02;;;2.10;55.70;;;;;;5100965;28;20615;-72
2022/01/08 02:18:34;;;;;;;15.52;8.38;;;2.10;55.60;;;;;;5068768;28;20020;-71
2022/01/08 02:21:01;;;;;;;15.57;8.68;;;2.10;55.40;;;;;;5067863;28;20055;-71
2022/01/08 02:23:30;;;;;;;16.55;8.57;;;2.10;55.50;;;;;;5069141;28;20075;-70
2022/01/08 02:26:08;;;;;;;17.42;9.25;;;2.20;55.60;;;;;;5100769;28;20024;-71
2022/01/08 02:28:36;;;;;;;18.15;9.40;;;2.20;55.50;;;;;;5065474;28;20024;-70
2022/01/08 02:31:03;;;;;;;17.38;8.52;;;2.20;55.50;;;;;;5068387;28;20031;-73
2022/01/08 02:33:36;;;;;;;16.95;9.35;;;2.20;55.30;;;;;;5050435;28;20048;-71
2022/01/08 02:36:06;;;;;;;;;;;2.10;55.40;;;;;;5068864;28;20044;-72
2022/01/08 02:38:34;;;;;;;15.85;8.45;;;2.00;55.60;;;;;;5068846;28;19911;-72
2022/01/08 02:41:03;;;;;;;19.67;10.13;;;2.00;55.70;;;;;;5083009;28;20024;-71
2022/01/08 02:43:33;;;;;;;17.15;8.88;;;2.10;55.90;;;;;;5066514;28;20473;-70
2022/01/08 02:45:59;;;;;;;17.40;9.30;;;2.10;56.00;;;;;;5069762;28;20473;-71
2022/01/08 02:48:25;;;;;;;17.58;8.90;;;2.10;55.90;;;;;;5072103;28;20036;-70
2022/01/08 02:50:51;;;;;;;15.60;8.88;;;2.10;55.80;;;;;;5071011;28;20027;-71
2022/01/08 02:53:17;;;;;;;16.88;8.45;;;2.00;55.80;;;;;;5088011;28;20119;-72
2022/01/08 02:55:45;;;;;;;17.95;9.90;;;1.90;56.00;;;;;;5072382;28;20036;-71
2022/01/08 02:58:12;;;;;;;15.77;8.85;;;1.90;56.20;;;;;;5071927;28;20025;-71
2022/01/08 03:00:38;;;;;;;18.10;9.27;;;1.90;56.20;;;;;;5071807;28;20032;-72
2022/01/08 03:03:04;;;;;;;17.17;9.57;;;1.90;56.30;;;;;;5071702;28;20184;-72
2022/01/08 03:05:33;;;;;;;18.27;8.48;;;1.90;56.40;;;;;;5071928;28;20033;-72
2022/01/08 03:07:59;;;;;;;17.58;9.45;;;2.00;56.60;;;;;;5069753;28;20033;-71
2022/01/08 03:10:25;;;;;;;18.73;9.82;;;2.00;56.60;;;;;;5072181;28;20371;-71
2022/01/08 03:12:51;;;;;;;19.20;9.10;;;2.00;56.70;;;;;;5087171;28;20056;-72
2022/01/08 03:15:20;;;;;;;25.92;10.52;;;2.10;56.80;;;;;;5071612;28;20375;-71
2022/01/08 03:17:47;;;;;;;19.63;10.38;;;2.10;56.70;;;;;;5071277;28;20029;-68
2022/01/08 03:20:14;;;;;;;19.85;10.27;;;2.20;56.60;;;;;;5071734;28;20032;-70
2022/01/08 03:22:45;;;;;;;20.60;10.20;;;2.20;56.60;;;;;;5071850;28;20023;-71
2022/01/08 03:25:13;;;;;;;18.27;9.13;;;2.30;56.30;;;;;;5070546;28;20385;-71
2022/01/08 03:27:48;;;;;;;16.85;9.75;;;2.40;56.20;;;;;;5071894;28;20120;-70
2022/01/08 03:30:14;;;;;;;18.90;9.02;;;2.40;55.90;;;;;;5071890;28;20029;-72
2022/01/08 03:32:40;;;;;;;19.20;10.52;;;2.50;56.50;;;;;;5070955;28;20032;-72
2022/01/08 03:35:06;;;;;;;16.27;9.90;;;2.50;55.80;;;;;;5071449;28;20236;-71
2022/01/08 03:37:32;;;;;;;22.58;9.63;;;2.50;55.60;;;;;;5070257;28;20067;-72
2022/01/08 03:39:57;;;;;;;19.20;9.73;;;2.50;55.60;;;;;;5071548;28;20055;-72
2022/01/08 03:42:23;;;;;;;16.80;9.15;;;2.60;55.30;;;;;;5072741;28;20172;-73
2022/01/08 03:44:49;;;;;;;15.93;9.50;;;2.50;55.30;;;;;;5073077;28;20028;-72
2022/01/08 03:49:54;;;;;;;18.88;9.70;;;2.50;54.70;;;;;;5072599;28;20036;-72
2022/01/08 03:52:20;;;;;;;17.20;8.73;;;2.40;54.50;;;;;;5073720;28;20115;-71
2022/01/08 03:54:47;;;;;;;18.95;9.60;;;2.30;54.70;;;;;;5073210;28;20044;-70
2022/01/08 03:57:13;;;;;;;19.27;9.18;;;2.30;54.70;;;;;;5072532;28;20052;-72
2022/01/08 03:59:57;;;;;;;16.52;9.38;;;2.20;54.70;;;;;;5071912;28;20060;-71
2022/01/08 04:02:23;;;;;;;15.60;8.63;;;2.20;55.00;;;;;;5071689;28;20040;-71
2022/01/08 04:04:48;;;;;;;16.52;9.05;;;2.20;54.90;;;;;;5072758;28;20033;-70
2022/01/08 04:07:14;;;;;;;14.73;8.30;;;2.20;54.90;;;;;;5073225;28;20067;-73
2022/01/08 04:09:40;;;;;;;16.73;8.23;;;2.10;55.30;;;;;;5072989;28;20406;-72
2022/01/08 04:12:08;;;;;;;16.77;8.82;;;2.10;55.40;;;;;;5072168;28;20044;-72
2022/01/08 04:14:50;;;;;;;18.90;8.45;;;2.10;55.60;;;;;;5073161;28;20064;-72
2022/01/08 04:17:16;;;;;;;16.15;8.27;;;2.20;55.80;;;;;;5072992;28;20025;-72
2022/01/08 04:19:42;;;;;;;12.48;8.40;;;2.20;55.90;;;;;;5072377;28;20028;-72
2022/01/08 04:22:13;;;;;;;15.65;8.68;;;2.20;56.00;;;;;;5072366;28;20462;-71
2022/01/08 04:24:41;;;;;;;16.77;9.25;;;2.30;56.20;;;;;;5072969;28;20032;-72
2022/01/08 04:27:07;;;;;;;21.83;9.30;;;2.30;56.30;;;;;;5072151;28;20028;-72
2022/01/08 04:29:33;;;;;;;17.70;8.95;;;2.30;56.50;;;;;;5072410;28;20029;-72
2022/01/08 04:31:58;;;;;;;17.10;8.52;;;2.30;56.60;;;;;;5070891;28;20524;-73
2022/01/08 04:34:26;;;;;;;16.30;8.48;;;2.30;56.80;;;;;;5070619;28;20505;-72
2022/01/08 04:36:51;;;;;;;16.25;8.98;;;2.30;57.10;;;;;;5072157;28;20115;-72
2022/01/08 04:39:17;;;;;;;15.88;8.60;;;2.30;57.30;;;;;;5072874;28;20451;-73
2022/01/08 04:41:43;;;;;;;21.83;9.07;;;2.30;57.40;;;;;;5072017;28;20021;-72
2022/01/08 04:44:09;;;;;;;16.77;8.80;;;2.40;57.30;;;;;;5071200;28;20021;-72
2022/01/08 04:46:40;;;;;;;18.77;9.02;;;2.30;57.30;;;;;;5055779;28;20025;-73
2022/01/08 04:49:07;;;;;;;17.33;8.20;;;2.30;57.80;;;;;;5052034;28;20096;-72
2022/01/08 04:51:33;;;;;;;16.60;7.88;;;2.40;57.60;;;;;;5100809;28;20033;-73
2022/01/08 04:53:58;;;;;;;16.88;8.52;;;2.30;56.90;;;;;;5071881;28;20033;-73
2022/01/08 04:56:24;;;;;;;17.77;8.55;;;2.40;57.00;;;;;;5071991;28;20024;-74
2022/01/08 04:58:49;;;;;;;13.93;8.05;;;2.40;57.00;;;;;;5071130;28;20029;-73
2022/01/08 05:01:17;;;;;;;17.80;9.18;;;2.40;57.00;;;;;;5070780;28;20025;-71
2022/01/08 05:03:44;;;;;;;16.50;9.00;;;2.40;57.00;;;;;;5072257;28;20029;-73
2022/01/08 05:06:09;;;;;;;16.42;9.20;;;2.50;56.80;;;;;;5071492;28;20449;-73
2022/01/08 05:08:36;;;;;;;15.98;8.52;;;2.50;56.80;;;;;;5072384;28;20060;-73
2022/01/08 05:11:02;;;;;;;16.25;8.57;;;2.50;56.70;;;;;;5070837;28;20376;-73
2022/01/08 05:13:27;;;;;;;14.73;7.60;;;2.50;56.20;;;;;;5072577;28;20041;-73
2022/01/08 05:15:53;;;;;;;12.38;7.32;;;2.40;56.10;;;;;;5070457;28;20354;-68
2022/01/08 05:18:19;;;;;;;13.98;8.30;;;2.40;56.40;;;;;;5072018;28;20024;-72
2022/01/08 05:20:54;;;;;;;13.63;7.68;;;2.40;56.50;;;;;;5071831;28;20362;-72
2022/01/08 05:23:20;;;;;;;15.90;7.43;;;2.30;56.60;;;;;;5070923;28;20043;-73
2022/01/08 05:25:45;;;;;;;12.38;7.65;;;2.30;56.80;;;;;;5072124;28;20021;-73
2022/01/08 05:28:11;;;;;;;16.85;8.38;;;2.30;57.00;;;;;;5070165;28;20498;-73
2022/01/08 05:30:37;;;;;;;16.92;8.45;;;2.20;57.20;;;;;;5071536;28;20021;-73
2022/01/08 05:33:03;;;;;;;14.98;8.25;;;2.10;57.30;;;;;;5070892;28;20036;-71
2022/01/08 05:35:29;;;;;;;14.27;8.38;;;2.20;57.80;;;;;;5072154;28;20488;-72
2022/01/08 05:37:56;;;;;;;15.68;8.38;;;2.20;57.90;;;;;;5071056;28;20017;-69
2022/01/08 05:40:22;;;;;;;14.70;8.13;;;2.10;58.20;;;;;;5070155;28;20434;-72
2022/01/08 05:42:51;;;;;;;15.10;8.35;;;2.10;58.50;;;;;;5071679;28;20025;-72
2022/01/08 05:45:17;;;;;;;14.75;8.25;;;2.10;58.70;;;;;;5070159;28;20052;-72
2022/01/08 05:47:42;;;;;;;17.08;8.75;;;2.10;58.70;;;;;;5071860;28;20037;-73
2022/01/08 05:50:09;;;;;;;16.50;8.98;;;2.10;58.70;;;;;;5070671;28;20103;-72
2022/01/08 05:52:35;;;;;;;20.05;9.02;;;2.00;58.60;;;;;;5070162;28;20107;-71
2022/01/08 05:55:01;;;;;;;16.52;8.85;;;2.00;58.70;;;;;;5070768;28;20120;-71
2022/01/08 05:57:26;;;;;;;17.17;9.23;;;2.00;58.60;;;;;;5071370;28;20040;-73
2022/01/08 05:59:52;;;;;;;18.55;9.38;;;2.00;58.70;;;;;;5071766;28;20025;-72
2022/01/08 06:02:18;;;;;;;18.13;9.63;;;2.00;59.10;;;;;;5070535;28;20119;-70
2022/01/08 06:04:44;;;;;;;17.73;8.88;;;2.00;59.30;;;;;;5071677;28;20462;-73
2022/01/08 06:07:09;;;;;;;18.10;10.60;;;2.00;59.50;;;;;;5070897;28;20029;-72
2022/01/08 06:09:35;;;;;;;18.30;10.23;;;2.00;59.80;;;;;;5071432;28;20029;-72
2022/01/08 06:12:01;;;;;;;18.52;9.57;;;1.90;60.00;;;;;;5071204;28;20041;-71
2022/01/08 06:14:27;;;;;;;18.58;8.98;;;2.00;60.00;;;;;;5070063;28;20127;-72
2022/01/08 06:16:53;;;;;;;21.80;9.50;;;2.00;60.00;;;;;;5071322;28;20036;-72
2022/01/08 06:19:19;;;;;;;19.83;9.98;;;2.10;59.90;;;;;;5070319;28;20032;-72
2022/01/08 06:21:44;;;;;;;13.77;8.82;;;2.10;59.60;;;;;;5074229;28;20104;-73
2022/01/08 06:24:15;;;;;;;18.05;9.18;;;2.10;59.40;;;;;;5074136;28;20031;-72
2022/01/08 06:26:41;;;;;;;16.85;9.77;;;2.10;59.40;;;;;;5075266;28;20060;-73
2022/01/08 06:29:06;;;;;;;19.55;9.18;;;2.20;59.40;;;;;;5074203;28;20024;-72
2022/01/08 06:31:32;;;;;;;17.70;9.35;;;2.20;59.10;;;;;;5075011;28;20040;-74
2022/01/08 06:33:58;;;;;;;18.75;9.65;;;2.20;59.70;;;;;;5074942;28;20060;-72
2022/01/08 06:36:24;;;;;;;16.73;9.25;;;2.20;59.40;;;;;;5074542;28;20395;-72
2022/01/08 06:38:51;;;;;;;17.35;10.13;;;2.10;59.60;;;;;;5075210;28;20373;-71
2022/01/08 06:41:17;;;;;;;19.15;9.63;;;2.20;59.80;;;;;;5074087;28;20021;-72
2022/01/08 06:43:43;;;;;;;18.02;9.27;;;2.20;59.70;;;;;;5075028;28;20087;-73
2022/01/08 06:46:09;;;;;;;18.02;10.40;;;2.20;59.70;;;;;;5069549;28;20089;-72
2022/01/08 06:48:35;;;;;;;16.08;8.90;;;2.20;59.70;;;;;;5074400;28;20393;-73
2022/01/08 06:51:01;;;;;;;18.77;9.85;;;2.20;59.70;;;;;;5074525;28;20029;-68
2022/01/08 06:53:27;;;;;;;15.50;9.48;;;2.10;60.00;;;;;;5074736;28;20037;-72
2022/01/08 06:55:55;;;;;;;19.55;10.43;;;2.10;60.30;;;;;;5073070;28;20393;-74
2022/01/08 06:58:21;;;;;;;18.58;10.18;;;2.10;60.70;;;;;;5072504;28;20123;-72
2022/01/08 07:00:47;;;;;;;17.60;9.77;;;2.10;60.60;;;;;;5074219;28;20059;-73
2022/01/08 07:03:14;;;;;;;19.00;9.75;;;2.20;60.50;;;;;;5072316;28;20090;-72
2022/01/08 07:05:40;;;;;;;17.13;10.02;;;2.30;60.20;;;;;;5074015;28;20024;-72
2022/01/08 07:11:10;;;;;;;18.35;10.23;;;2.30;60.10;;;;;;5075183;28;20512;-76
2022/01/08 07:13:36;;;;;;;19.67;10.20;;;2.30;60.00;;;;;;5055103;28;20103;-70
2022/01/08 07:16:01;;;;;;;16.48;9.95;;;2.30;59.80;;;;;;5072977;28;20024;-73
2022/01/08 07:18:30;;;;;;;20.30;10.63;;;2.30;60.10;;;;;;5073417;28;20440;-73
2022/01/08 07:20:56;;;;;;;20.73;10.73;;;2.40;60.40;;;;;;5074084;28;20024;-73
2022/01/08 07:23:28;;;;;;;18.23;10.77;;;2.40;60.90;;;;;;5073674;28;20021;-76
2022/01/08 07:25:54;;;;;;;23.27;10.40;;;2.40;61.20;;;;;;5074008;28;20025;-73
2022/01/08 07:28:19;;;;;;;22.20;10.13;;;2.40;61.00;;;;;;5073477;28;20082;-74
2022/01/08 07:30:46;;;;;;;18.15;9.70;;;2.40;60.50;;;;;;5074287;28;20025;-75
2022/01/08 07:33:17;;;;;;;20.23;9.95;;;2.40;60.40;;;;;;5070352;28;20029;-72
2022/01/08 07:35:44;;;;;;;18.77;10.68;;;2.40;60.60;;;;;;5071669;28;20035;-71
2022/01/08 07:38:10;;;;;;;20.85;10.93;;;2.40;60.80;;;;;;5072790;28;20100;-72
2022/01/08 07:40:37;;;;;;;26.13;12.93;;;2.40;60.90;;;;;;5071639;28;20470;-72
2022/01/08 07:43:05;;;;;;;30.65;16.55;;;2.40;61.20;;;;;;5073645;28;20372;-72
2022/01/08 07:45:31;;;;;;;21.73;11.68;;;2.40;61.40;;;;;;5072420;28;20385;-73
2022/01/08 07:47:57;;;;;;;20.88;12.02;;;2.50;61.60;;;;;;5072113;28;20036;-74
2022/01/08 07:50:23;;;;;;;22.75;11.50;;;2.50;61.70;;;;;;5071361;28;20028;-76
2022/01/08 07:52:48;;;;;;;18.50;10.63;;;2.50;61.70;;;;;;5073568;28;20474;-74
2022/01/08 07:55:14;;;;;;;18.67;10.85;;;2.50;61.20;;;;;;5072827;28;20037;-72
2022/01/08 07:57:40;;;;;;;22.65;12.25;;;2.60;61.00;;;;;;5071802;28;20086;-73
2022/01/08 08:00:12;;;;;;;19.13;10.65;;;2.70;61.00;;;;;;5072988;28;22173;-74
2022/01/08 08:02:38;;;;;;;20.40;10.95;;;2.80;60.70;;;;;;5072829;28;20382;-72
2022/01/08 08:05:04;;;;;;;19.60;11.45;;;2.90;60.20;;;;;;5072520;28;20473;-74
2022/01/08 08:07:41;;;;;;;22.40;10.70;;;2.80;60.00;;;;;;5072348;28;20107;-73
2022/01/08 08:10:15;;;;;;;21.70;13.38;;;2.80;60.20;;;;;;5073563;28;20110;-75
2022/01/08 08:12:41;;;;;;;16.45;10.60;;;2.90;60.40;;;;;;5072310;28;20049;-74
2022/01/08 08:15:08;;;;;;;21.55;10.65;;;2.90;59.80;;;;;;5072785;28;20040;-71
2022/01/08 08:17:34;;;;;;;18.38;10.90;;;3.00;59.50;;;;;;5073334;28;20034;-70
2022/01/08 08:20:01;;;;;;;18.75;10.73;;;3.10;59.20;;;;;;5071522;28;20032;-71
2022/01/08 08:22:27;;;;;;;19.25;11.23;;;3.20;58.90;;;;;;5072298;28;20111;-74
2022/01/08 08:24:53;;;;;;;20.50;11.30;;;3.20;58.80;;;;;;5072600;28;20036;-70
2022/01/08 08:27:19;;;;;;;18.83;11.82;;;3.20;58.50;;;;;;5072121;28;20027;-72
2022/01/08 08:29:44;;;;;;;21.40;11.57;;;3.30;58.40;;;;;;5072811;28;20462;-71
2022/01/08 08:32:10;;;;;;;19.42;10.02;;;3.40;58.10;;;;;;5072104;28;20028;-72
2022/01/08 08:34:36;;;;;;;17.73;10.82;;;3.40;57.60;;;;;;5071321;28;20185;-72
2022/01/08 08:37:02;;;;;;;19.70;10.85;;;3.50;57.50;;;;;;5072567;28;20047;-74
2022/01/08 08:39:28;;;;;;;20.33;10.10;;;3.50;57.30;;;;;;5071258;28;20031;-72
2022/01/08 08:41:54;;;;;;;17.17;10.68;;;3.40;57.40;;;;;;5070948;28;20032;-71
2022/01/08 08:44:19;;;;;;;21.95;10.90;;;3.50;57.70;;;;;;5070682;28;20028;-72
2022/01/08 08:46:47;;;;;;;18.65;10.70;;;3.50;57.30;;;;;;5069063;28;20365;-71
2022/01/08 08:49:12;;;;;;;21.05;11.88;;;3.50;57.40;;;;;;5050378;28;20033;-70
2022/01/08 08:51:38;;;;;;;19.02;10.82;;;3.70;57.50;;;;;;5051163;28;20027;-70
2022/01/08 08:54:04;;;;;;;23.05;11.80;;;3.90;57.30;;;;;;5084864;28;20102;-71
2022/01/08 08:56:30;;;;;;;21.98;11.32;;;4.10;56.80;;;;;;5051898;28;20024;-71
2022/01/08 08:58:57;;;;;;;22.73;11.43;;;4.30;56.40;;;;;;5051819;28;20021;-72
2022/01/08 09:01:25;;;;;;;21.50;12.30;;;4.40;56.00;;;;;;5052274;28;20037;-73
2022/01/08 09:03:51;;;;;;;23.25;13.68;;;4.30;55.90;;;;;;5068428;28;20033;-64
2022/01/08 09:06:18;;;;;;;23.25;12.82;;;4.30;56.10;;;;;;5084275;28;20044;-67
2022/01/08 09:08:44;;;;;;;21.75;12.02;;;4.30;56.40;;;;;;5069509;28;20028;-65
2022/01/08 09:11:12;;;;;;;21.50;11.10;;;4.40;56.10;;;;;;5066115;28;20124;-73
2022/01/08 09:13:37;;;;;;;21.50;11.63;;;4.40;56.10;;;;;;5068723;28;20048;-70
2022/01/08 09:16:09;;;;;;;20.13;12.65;;;4.40;56.10;;;;;;5069291;28;20036;-69
2022/01/08 09:18:41;;;;;;;22.02;12.43;;;4.30;56.10;;;;;;5069317;28;20032;-72
2022/01/08 09:21:07;;;;;;;20.50;11.23;;;4.30;56.20;;;;;;5068410;28;20504;-76
2022/01/08 09:23:34;;;;;;;19.35;10.70;;;4.30;56.00;;;;;;5068825;28;20035;-70
2022/01/08 09:26:00;;;;;;;16.38;10.50;;;4.30;55.60;;;;;;5070448;28;20105;-65
2022/01/08 09:28:28;;;;;;;20.73;10.15;;;4.30;55.30;;;;;;5069478;28;20115;-73
2022/01/08 09:30:54;;;;;;;17.85;10.30;;;4.30;55.50;;;;;;5070211;28;20032;-70
2022/01/08 09:33:21;;;;;;;19.85;11.88;;;4.30;55.30;;;;;;5069754;28;20059;-69
2022/01/08 09:35:47;;;;;;;16.20;9.65;;;4.30;55.10;;;;;;5070246;28;20028;-67
2022/01/08 09:38:13;;;;;;;20.60;10.93;;;4.30;54.80;;;;;;5068488;28;20063;-71
2022/01/08 09:40:39;;;;;;;22.13;11.70;;;4.30;54.90;;;;;;5069260;28;20056;-76
2022/01/08 09:43:05;;;;;;;22.95;12.68;;;4.40;55.70;;;;;;5084912;28;20025;-64
2022/01/08 09:45:31;;;;;;;23.20;11.85;;;4.50;54.20;;;;;;5085191;28;20895;-71
2022/01/08 09:47:58;;;;;;;23.85;11.27;;;4.50;54.30;;;;;;5051814;28;20032;-70
2022/01/08 09:50:23;;;;;;;18.95;10.80;;;4.40;54.20;;;;;;5066983;28;20025;-67
2022/01/08 09:52:53;;;;;;;15.27;9.70;;;4.40;54.40;;;;;;5069838;28;20033;-69
2022/01/08 09:55:20;;;;;;;16.60;10.15;;;4.40;54.50;;;;;;5067635;28;20059;-65
2022/01/08 09:57:46;;;;;;;21.13;10.23;;;4.30;54.80;;;;;;5074162;28;20422;-73
2022/01/08 10:00:15;;;;;;;20.90;10.45;;;4.30;55.10;;;;;;5071621;28;20238;-69
2022/01/08 10:02:41;;;;;;;16.88;10.15;;;4.30;54.80;;;;;;5073467;28;20121;-69
2022/01/08 10:05:09;;;;;;;17.50;9.63;;;4.40;55.00;;;;;;5074270;28;20023;-66
2022/01/08 10:07:35;;;;;;;19.00;10.55;;;4.50;55.60;;;;;;5085358;28;20043;-70
2022/01/08 10:10:04;;;;;;;29.95;14.55;;;4.60;54.80;;;;;;5072040;28;20014;-69
2022/01/08 10:12:54;;;;;;;21.33;10.80;;;4.60;54.50;;;;;;5071796;28;20048;-69
2022/01/08 10:18:28;;;;;;;16.92;9.38;;;4.50;54.50;;;;;;5072248;28;20157;-70
2022/01/08 10:20:56;;;;;;;16.83;9.98;;;4.50;54.70;;;;;;5071729;28;20033;-70
2022/01/08 10:23:34;;;;;;;18.40;10.77;;;4.40;54.90;;;;;;5087585;28;20083;-69
2022/01/08 10:26:06;;;;;;;17.63;10.70;;;4.50;54.90;;;;;;5072967;28;20020;-70
2022/01/08 10:28:42;;;;;;;23.25;11.38;;;4.60;55.00;;;;;;5069372;28;20043;-70
2022/01/08 10:31:26;;;;;;;20.02;10.40;;;4.70;54.80;;;;;;5069955;28;20020;-70
2022/01/08 10:33:54;;;;;;;19.38;10.52;;;4.80;54.50;;;;;;5072649;28;20050;-69
2022/01/08 10:36:31;;;;;;;22.80;10.73;;;4.70;54.20;;;;;;5073935;28;20047;-69
2022/01/08 10:39:00;;;;;;;16.27;9.90;;;4.70;54.30;;;;;;5086458;28;20115;-70
2022/01/08 10:41:28;;;;;;;17.63;10.05;;;4.70;54.20;;;;;;5070303;28;20035;-69
2022/01/08 10:44:18;;;;;;;27.85;10.50;;;4.80;54.10;;;;;;5088920;28;20020;-70
2022/01/08 10:47:05;;;;;;;20.65;10.90;;;4.70;54.00;;;;;;5071736;28;20074;-69
2022/01/08 10:49:32;;;;;;;19.33;10.63;;;4.60;54.60;;;;;;5064857;28;21025;-70
2022/01/08 10:52:08;;;;;;;21.40;11.98;;;4.60;55.00;;;;;;5071325;28;20031;-71
2022/01/08 10:54:36;;;;;;;17.77;10.80;;;4.70;55.80;;;;;;5066036;28;20071;-76
2022/01/08 10:57:06;;;;;;;18.33;11.35;;;4.70;55.00;;;;;;5070920;28;20028;-70
2022/01/08 10:59:32;;;;;;;19.50;11.13;;;4.70;55.30;;;;;;5071663;28;20040;-69
2022/01/08 11:02:03;;;;;;;17.88;10.90;;;4.60;55.30;;;;;;5071489;28;20170;-70
2022/01/08 11:04:54;;;;;;;19.58;10.77;;;4.50;55.40;;;;;;5070036;28;20044;-72
2022/01/08 11:07:29;;;;;;;23.80;10.98;;;4.40;55.70;;;;;;5067930;28;20100;-71
2022/01/08 11:10:04;;;;;;;24.65;10.40;;;4.30;56.10;;;;;;5073267;28;20027;-77
2022/01/08 11:12:36;;;;;;;18.83;10.40;;;4.40;56.80;;;;;;5072034;28;20053;-77
2022/01/08 11:17:46;;;;;;;24.30;12.35;;;4.30;56.40;;;;;;5069400;28;20044;-77
2022/01/08 11:20:13;;;;;;;24.40;12.48;;;4.50;56.50;;;;;;5071948;28;20032;-75
2022/01/08 11:22:41;;;;;;;19.67;11.10;;;4.70;56.00;;;;;;5071845;28;20468;-77
2022/01/08 11:25:12;;;;;;;20.27;11.23;;;4.80;55.40;;;;;;5072463;28;20036;-77
2022/01/08 11:27:59;;;;;;;19.65;12.07;;;4.80;55.30;;;;;;5072780;28;20074;-81
2022/01/08 11:30:27;;;;;;;18.73;11.05;;;4.90;55.30;;;;;;5064022;28;20032;-69
2022/01/08 11:32:56;;;;;;;21.77;11.63;;;5.00;55.20;;;;;;5073161;28;20500;-84
2022/01/08 11:35:24;;;;;;;22.60;12.40;;;5.00;55.10;;;;;;5069175;28;20025;-74
2022/01/08 11:37:51;;;;;;;21.02;12.25;;;5.10;55.50;;;;;;5071176;28;20040;-70
2022/01/08 11:40:20;;;;;;;19.88;12.15;;;5.40;54.80;;;;;;5072348;28;20025;-80
2022/01/08 11:42:47;;;;;;;26.30;11.68;;;5.50;54.30;;;;;;5068648;28;20020;-73
2022/01/08 11:45:17;;;;;;;21.88;12.02;;;5.50;54.00;;;;;;5066789;28;20542;-73
2022/01/08 11:47:49;;;;;;;22.55;12.10;;;5.40;53.90;;;;;;5068208;28;20024;-73
2022/01/08 11:50:19;;;;;;;21.08;11.68;;;5.20;54.10;;;;;;5062814;28;20025;-77
2022/01/08 11:52:45;;;;;;;21.40;12.38;;;5.00;54.60;;;;;;5055812;28;20021;-73
2022/01/08 11:55:11;;;;;;;23.80;11.85;;;4.90;54.90;;;;;;5063482;28;20051;-79
2022/01/08 11:57:37;;;;;;;19.52;11.40;;;5.00;55.00;;;;;;5063246;28;20032;-70
2022/01/08 12:00:05;;;;;;;17.75;11.40;;;4.90;54.90;;;;;;5062488;28;20167;-69
2022/01/08 12:02:42;;;;;;;20.48;11.60;;;4.90;55.00;;;;;;5055519;28;20086;-69
2022/01/08 12:05:11;;;;;;;21.13;11.88;;;4.90;55.20;;;;;;5062426;28;20035;-69
2022/01/08 12:07:47;;;;;;;26.65;13.50;;;4.90;55.20;;;;;;5061229;28;20108;-73
2022/01/08 12:10:26;;;;;;;34.53;17.40;;;5.10;55.30;;;;;;5064193;28;20027;-72
2022/01/08 12:13:00;;;;;;;20.08;12.23;;;5.00;54.50;;;;;;5069413;28;20056;-73
2022/01/08 12:15:46;;;;;;;;;;;4.90;54.80;;;;;;5062013;28;20032;-71
2022/01/08 12:18:15;;;;;;;25.02;12.93;;;4.90;54.80;;;;;;5078313;28;19920;-69
2022/01/08 12:20:56;;;;;;;29.85;15.07;;;4.90;55.00;;;;;;5070329;28;20031;-68
2022/01/08 12:23:35;;;;;;;24.30;14.35;;;5.00;55.10;;;;;;5066734;28;20032;-70
2022/01/08 12:26:04;;;;;;;17.58;11.23;;;5.10;54.60;;;;;;5068430;28;20028;-68
2022/01/08 12:28:50;;;;;;;19.40;10.95;;;5.10;54.30;;;;;;5065149;28;20016;-69
2022/01/08 12:31:22;;;;;;;25.63;12.25;;;5.10;54.50;;;;;;5067889;28;20024;-70
2022/01/08 12:34:20;;;;;;;21.20;11.40;;;5.10;54.50;;;;;;5069142;28;20028;-72
2022/01/08 12:37:05;;;;;;;19.45;11.85;;;5.00;54.80;;;;;;5068068;28;20081;-69
2022/01/08 12:39:47;;;;;;;19.33;11.45;;;4.90;54.90;;;;;;5055327;28;20186;-68
2022/01/08 12:42:26;;;;;;;20.65;12.00;;;4.90;55.00;;;;;;5056171;28;20027;-70
2022/01/08 12:45:06;;;;;;;18.95;11.27;;;4.80;55.40;;;;;;5069403;28;20035;-70
2022/01/08 12:47:50;;;;;;;20.58;11.50;;;4.90;55.60;;;;;;5050425;28;20304;-69
2022/01/08 12:50:19;;;;;;;17.17;11.38;;;4.90;55.50;;;;;;5063733;28;20035;-72
2022/01/08 12:53:03;;;;;;;21.35;11.70;;;4.90;55.40;;;;;;5070330;28;20044;-72
2022/01/08 12:55:55;;;;;;;19.55;11.57;;;4.80;55.70;;;;;;5069638;28;20024;-71
2022/01/08 12:58:25;;;;;;;22.10;12.13;;;4.80;55.90;;;;;;5065610;28;20043;-72
2022/01/08 13:01:07;;;;;;;22.30;12.52;;;4.90;56.00;;;;;;5069663;28;20029;-72
2022/01/08 13:03:36;;;;;;;19.88;11.15;;;4.90;55.80;;;;;;5067069;28;20032;-72
2022/01/08 13:06:14;;;;;;;19.65;10.82;;;4.80;55.30;;;;;;5069747;28;20427;-71
2022/01/08 13:08:42;;;;;;;19.88;12.45;;;4.70;55.50;;;;;;5069481;28;20103;-70
2022/01/08 13:11:11;;;;;;;19.58;11.63;;;4.70;55.70;;;;;;5061321;28;20048;-68
2022/01/08 13:13:40;;;;;;;23.80;12.32;;;4.80;55.80;;;;;;5068473;28;20061;-70
2022/01/08 13:16:21;;;;;;;19.52;11.40;;;4.70;55.60;;;;;;5064799;28;20439;-70
2022/01/08 13:18:51;;;;;;;19.60;10.82;;;4.70;55.90;;;;;;5067728;28;20033;-69
2022/01/08 13:21:18;;;;;;;21.17;11.63;;;4.60;55.90;;;;;;5063057;28;20048;-66